createdAt,value
2019-02-19T00:00:28.947Z,15.53
2019-02-19T00:05:24.853Z,17.53
2019-02-19T00:10:20.748Z,21.83
2019-02-19T00:15:17.370Z,22.50
2019-02-19T00:20:13.362Z,17.53
2019-02-19T00:25:09.270Z,15.47
2019-02-19T00:30:05.954Z,18.53
2019-02-19T00:35:01.956Z,18.20
2019-02-19T00:39:57.839Z,16.83
2019-02-19T00:45:00.354Z,15.60
2019-02-19T00:49:56.268Z,25.87
2019-02-19T00:54:52.174Z,13.97
2019-02-19T00:59:48.100Z,13.40
2019-02-19T01:04:43.976Z,15.27
2019-02-19T01:09:39.902Z,13.80
2019-02-19T01:14:35.808Z,13.73
2019-02-19T01:19:35.496Z,16.50
2019-02-19T01:24:31.403Z,16.03
2019-02-19T01:29:27.291Z,16.03
2019-02-19T01:34:23.176Z,14.20
2019-02-19T01:39:19.185Z,20.70
2019-02-19T01:44:15.068Z,13.30
2019-02-19T01:49:10.965Z,16.17
2019-02-19T01:54:06.882Z,17.40
2019-02-19T01:59:02.781Z,14.27
2019-02-19T02:03:58.683Z,18.93
2019-02-19T02:08:54.589Z,12.40
2019-02-19T02:13:50.529Z,21.23
2019-02-19T02:18:46.482Z,13.23
2019-02-19T02:23:42.390Z,13.17
2019-02-19T02:28:38.401Z,14.90
2019-02-19T02:33:34.315Z,17.63
2019-02-19T02:38:30.204Z,14.03
2019-02-19T02:43:26.096Z,13.33
2019-02-19T02:48:21.979Z,15.23
2019-02-19T02:53:17.865Z,12.80
2019-02-19T02:58:13.761Z,21.30
2019-02-19T03:03:09.620Z,14.70
2019-02-19T03:08:05.874Z,11.77
2019-02-19T03:13:01.761Z,14.77
2019-02-19T03:17:57.666Z,16.20
2019-02-19T03:22:53.582Z,15.93
2019-02-19T03:27:49.469Z,19.67
2019-02-19T03:32:45.386Z,20.90
2019-02-19T03:37:41.260Z,19.30
2019-02-19T03:42:37.254Z,20.60
2019-02-19T03:47:33.150Z,23.43
2019-02-19T03:52:29.039Z,23.57
2019-02-19T03:57:24.926Z,25.20
2019-02-19T04:02:20.813Z,27.40
2019-02-19T04:07:16.791Z,38.53
2019-02-19T04:12:12.680Z,25.30
2019-02-19T04:17:08.564Z,30.43
2019-02-19T04:22:04.525Z,38.10
2019-02-19T04:27:00.431Z,35.63
2019-02-19T04:31:56.312Z,35.20
2019-02-19T04:36:52.210Z,26.93
2019-02-19T04:41:48.096Z,25.33
2019-02-19T04:46:44.001Z,32.90
2019-02-19T04:51:39.886Z,38.03
2019-02-19T04:56:35.877Z,31.27
2019-02-19T05:01:31.777Z,37.77
2019-02-19T05:06:27.677Z,39.63
2019-02-19T05:11:23.569Z,45.87
2019-02-19T05:16:19.454Z,47.37
2019-02-19T05:21:15.465Z,36.47
2019-02-19T05:26:11.446Z,45.70
2019-02-19T05:31:07.430Z,42.87
2019-02-19T05:36:03.341Z,38.27
2019-02-19T05:40:59.226Z,46.47
2019-02-19T05:45:55.849Z,44.67
2019-02-19T05:50:51.698Z,51.77
2019-02-19T05:55:47.669Z,50.57
2019-02-19T06:00:43.561Z,47.20
2019-02-19T06:05:39.443Z,41.63
2019-02-19T06:10:35.327Z,49.17
2019-02-19T06:15:31.946Z,34.83
2019-02-19T06:20:27.820Z,32.23
2019-02-19T06:25:23.702Z,43.10
2019-02-19T06:30:19.625Z,33.03
2019-02-19T06:35:15.531Z,36.33
2019-02-19T06:40:23.160Z,37.43
2019-02-19T06:45:19.948Z,44.57
2019-02-19T06:50:15.806Z,29.87
2019-02-19T06:55:11.686Z,36.90
2019-02-19T07:00:10.387Z,23.57
2019-02-19T07:05:08.070Z,38.03
2019-02-19T07:10:05.159Z,29.63
2019-02-19T07:15:04.992Z,40.13
2019-02-19T07:20:00.945Z,38.73
2019-02-19T07:24:56.915Z,32.20
2019-02-19T07:29:52.794Z,35.20
2019-02-19T07:34:48.678Z,34.97
2019-02-19T07:39:44.561Z,27.57
2019-02-19T07:44:41.940Z,29.40
2019-02-19T07:49:38.038Z,23.43
2019-02-19T07:54:33.930Z,37.00
2019-02-19T07:59:29.813Z,45.03
2019-02-19T08:04:25.688Z,42.80
2019-02-19T08:09:21.578Z,53.37
2019-02-19T08:14:17.463Z,26.20
2019-02-19T08:19:13.350Z,34.50
2019-02-19T08:24:09.256Z,34.30
2019-02-19T08:29:13.545Z,28.67
2019-02-19T08:34:02.996Z,22.67
2019-02-19T08:38:58.879Z,20.07
2019-02-19T08:43:54.754Z,44.77
2019-02-19T08:48:55.936Z,32.97
2019-02-19T08:53:56.577Z,37.73
2019-02-19T08:58:53.871Z,31.87
2019-02-19T09:03:55.001Z,21.07
2019-02-19T09:08:51.832Z,32.27
2019-02-19T09:13:48.965Z,40.23
2019-02-19T09:18:46.290Z,46.03
2019-02-19T09:23:44.681Z,18.93
2019-02-19T09:28:43.571Z,34.23
2019-02-19T09:33:40.374Z,19.17
2019-02-19T09:38:37.605Z,40.50
2019-02-19T09:43:35.748Z,32.10
2019-02-19T09:48:31.596Z,15.80
2019-02-19T09:53:27.620Z,25.80
2019-02-19T09:58:23.752Z,16.33
2019-02-19T10:03:19.632Z,31.40
2019-02-19T10:08:15.520Z,21.80
2019-02-19T10:13:11.401Z,42.70
2019-02-19T10:18:10.317Z,23.67
2019-02-19T10:23:05.362Z,33.93
2019-02-19T10:28:01.405Z,29.10
2019-02-19T10:32:57.295Z,21.63
2019-02-19T10:37:55.484Z,25.90
2019-02-19T10:42:51.491Z,31.13
2019-02-19T10:47:48.054Z,18.63
2019-02-19T10:52:44.255Z,17.20
2019-02-19T10:57:40.113Z,20.60
2019-02-19T11:02:36.001Z,14.57
2019-02-19T11:07:33.128Z,11.83
2019-02-19T11:12:30.365Z,17.93
2019-02-19T11:17:29.003Z,13.50
2019-02-19T11:22:26.009Z,13.87
2019-02-19T11:27:21.991Z,11.10
2019-02-19T11:32:17.880Z,14.20
2019-02-19T11:37:13.765Z,18.60
2019-02-19T11:42:09.649Z,20.67
2019-02-19T11:47:05.531Z,13.17
2019-02-19T11:52:01.419Z,8.30
2019-02-19T11:56:57.302Z,10.07
2019-02-19T12:01:53.284Z,15.80
2019-02-19T12:06:49.163Z,12.90
2019-02-19T12:11:45.047Z,22.17
2019-02-19T12:16:40.927Z,5.73
2019-02-19T12:21:36.850Z,4.73
2019-02-19T12:26:32.828Z,10.00
2019-02-19T12:31:28.711Z,11.03
2019-02-19T12:36:25.124Z,5.90
2019-02-19T12:41:23.104Z,11.53
2019-02-19T12:46:19.272Z,14.33
2019-02-19T12:51:15.311Z,5.70
2019-02-19T12:56:11.199Z,14.43
2019-02-19T13:01:07.191Z,10.10
2019-02-19T13:06:03.075Z,10.43
2019-02-19T13:10:59.061Z,9.43
2019-02-19T13:15:55.920Z,9.80
2019-02-19T13:20:51.800Z,9.33
2019-02-19T13:25:47.693Z,3.37
2019-02-19T13:30:43.595Z,4.27
2019-02-19T13:35:39.484Z,5.47
2019-02-19T13:40:35.383Z,6.03
2019-02-19T13:45:31.946Z,14.30
2019-02-19T13:50:29.791Z,11.27
2019-02-19T13:55:27.584Z,13.23
2019-02-19T14:00:25.395Z,16.47
2019-02-19T14:05:21.284Z,4.17
2019-02-19T14:10:17.175Z,11.80
2019-02-19T14:15:20.087Z,9.00
2019-02-19T14:20:20.872Z,11.93
2019-02-19T14:25:30.775Z,15.93
2019-02-19T14:30:47.517Z,4.83
2019-02-19T14:35:54.818Z,10.43
2019-02-19T14:46:18.714Z,8.63
2019-02-19T14:51:23.567Z,13.87
2019-02-19T14:56:31.457Z,14.63
2019-02-19T15:01:33.283Z,11.00
2019-02-19T15:06:49.574Z,12.33
2019-02-19T15:12:04.946Z,16.30
2019-02-19T15:17:19.971Z,7.00
2019-02-19T15:22:30.955Z,16.70
2019-02-19T15:27:47.744Z,8.07
2019-02-19T15:32:58.437Z,15.53
2019-02-19T15:37:56.770Z,13.20
2019-02-19T15:42:58.348Z,13.43
2019-02-19T15:47:59.506Z,5.57
2019-02-19T15:52:57.400Z,16.53
2019-02-19T15:58:04.568Z,12.50
2019-02-19T16:03:03.712Z,8.10
2019-02-19T16:13:33.421Z,14.40
2019-02-19T16:18:31.459Z,6.83
2019-02-19T16:23:46.229Z,7.67
2019-02-19T16:28:44.125Z,10.40
2019-02-19T16:33:50.863Z,11.53
2019-02-19T16:39:00.932Z,6.90
2019-02-19T16:49:17.780Z,10.67
2019-02-19T16:54:16.224Z,6.60
2019-02-19T16:59:14.121Z,11.30
2019-02-19T17:04:12.979Z,16.73
2019-02-19T17:09:20.143Z,7.93
2019-02-19T17:14:33.338Z,10.73
2019-02-19T17:19:45.358Z,13.00
2019-02-19T17:24:48.987Z,18.30
2019-02-19T17:29:46.879Z,12.77
2019-02-19T17:35:01.324Z,6.90
2019-02-19T17:40:02.162Z,5.10
2019-02-19T17:45:12.458Z,12.00
2019-02-19T17:55:17.150Z,6.33
2019-02-19T18:00:14.948Z,11.87
2019-02-19T18:05:15.614Z,5.03
2019-02-19T18:10:13.603Z,13.93
2019-02-19T18:15:18.284Z,7.10
2019-02-19T18:20:14.265Z,8.43
2019-02-19T18:25:10.153Z,4.93
2019-02-19T18:30:08.206Z,2.07
2019-02-19T18:35:09.624Z,2.90
2019-02-19T18:40:23.005Z,6.07
2019-02-19T18:45:24.302Z,7.20
2019-02-19T18:50:26.215Z,3.67
2019-02-19T18:55:23.170Z,4.03
2019-02-19T19:00:19.068Z,9.83
2019-02-19T19:05:15.045Z,7.33
2019-02-19T19:10:11.228Z,7.90
2019-02-19T19:15:08.693Z,7.53
2019-02-19T19:20:07.961Z,6.13
2019-02-19T19:25:04.961Z,5.70
2019-02-19T19:30:01.764Z,15.57
2019-02-19T19:34:57.779Z,1.93
2019-02-19T19:39:53.717Z,12.80
2019-02-19T19:44:49.667Z,7.80
2019-02-19T19:49:45.582Z,17.57
2019-02-19T19:54:41.486Z,6.17
2019-02-19T19:59:37.468Z,8.40
2019-02-19T20:04:33.352Z,4.40
2019-02-19T20:09:29.338Z,5.87
2019-02-19T20:14:25.261Z,6.20
2019-02-19T20:19:21.145Z,9.77
2019-02-19T20:24:17.165Z,11.90
2019-02-19T20:29:13.068Z,8.27
2019-02-19T20:34:08.998Z,11.93
2019-02-19T20:39:04.942Z,6.90
2019-02-19T20:44:00.826Z,6.07
2019-02-19T20:48:56.809Z,22.07
2019-02-19T20:53:52.696Z,13.53
2019-02-19T20:58:48.680Z,23.63
2019-02-19T21:03:44.565Z,15.67
2019-02-19T21:08:40.548Z,7.27
2019-02-19T21:13:36.435Z,11.00
2019-02-19T21:18:32.435Z,12.43
2019-02-19T21:23:28.332Z,16.50
2019-02-19T21:28:25.110Z,12.43
2019-02-19T21:33:21.013Z,13.57
2019-02-19T21:38:16.981Z,15.13
2019-02-19T21:43:12.872Z,11.03
2019-02-19T21:48:08.853Z,8.80
2019-02-19T21:53:04.731Z,10.03
2019-02-19T21:58:00.615Z,14.70
2019-02-19T22:02:56.513Z,9.87
2019-02-19T22:07:52.400Z,18.50
2019-02-19T22:12:48.285Z,12.73
2019-02-19T22:17:44.253Z,13.87
2019-02-19T22:22:40.167Z,9.37
2019-02-19T22:27:36.047Z,13.20
2019-02-19T22:32:31.956Z,12.70
2019-02-19T22:37:27.841Z,11.50
2019-02-19T22:42:23.723Z,7.73
2019-02-19T22:47:19.613Z,19.23
2019-02-19T22:52:15.501Z,12.57
2019-02-19T22:57:11.386Z,12.83
2019-02-19T23:02:09.276Z,11.40
2019-02-19T23:07:05.160Z,11.17
2019-02-19T23:12:01.294Z,12.83
2019-02-19T23:16:57.153Z,13.77
2019-02-19T23:21:53.646Z,14.03
2019-02-19T23:26:49.527Z,14.97
2019-02-19T23:31:45.418Z,13.57
2019-02-19T23:36:46.012Z,13.87
2019-02-19T23:41:41.908Z,15.27
2019-02-19T23:46:37.809Z,17.30
2019-02-19T23:51:33.692Z,11.77
2019-02-19T23:56:29.577Z,17.40
